Honokaa, HI (96727)

5:33 PM HST on February 05, 2016 (GMT -1000)
Kapulena | | Change Station
CLOSE
Current Station
Personal Weather Station
Location: Honokaa, HI
Elevation: 1010 ft
Nearby Weather Stations

Elev 1010 ft 20.10 °N, 155.53 °W | Updated 15 minutes ago

Mostly Cloudy
Mostly Cloudy
74.6 °F
Feels Like 75 °F
N
2.0
Wind Variable Wind from NW
Gusts 6.0 mph

Today
High -- | Low -- °F
--% Chance of Precip.
Yesterday
High -- | Low -- °F
Precip. -- in
Pressure 29.96 in
Visibility 10.0 miles
Clouds Few 4000 ft
Mostly Cloudy 4900 ft
Heat Index 75 °F
Dew Point 69 °F
Humidity 83%
Rainfall 0.00 in
Snow Depth Not available.
6:56 AM 6:16 PM
Waning Crescent, 8% visible
METAR PHTO 060253Z 13008KT 10SM FEW040 BKN049 25/21 A2996 RMK AO2 RAB0158E09 SLP144 P0000 60001 T02500206 55001
Pressure 29.96 in
Visibility 10.0 miles
Clouds Few 4000 ft
Mostly Cloudy 4900 ft
Heat Index 75 °F
Dew Point 69 °F
Humidity 83%
Rainfall 0.00 in
Snow Depth Not available.
6:56 AM 6:16 PM
Waning Crescent, 8% visible
METAR PHTO 060253Z 13008KT 10SM FEW040 BKN049 25/21 A2996 RMK AO2 RAB0158E09 SLP144 P0000 60001 T02500206 55001

10-Day Weather Forecast

Almanac

Astronomy

Feb. 05, 2016 Rise Set
Actual Time
Civil Twilight
Nautical Twilight
Astronomical Twilight
Moon
Length of Visible Light
Length of Day
Tomorrow will be .
, % of the Moon is Illuminated

Today's Extremes

State Highs State Lows

Community

WunderPhotos

Upload Photos

1,890,919 photos uploaded!

WunderBlog® & News

Nearby

Air Quality

  Air Quality AQ Index Pollutant
Not available.

Snow Depth

Station Depth Elevation

Earthquake Activity

City Distance Mag. Time & Date
Minimum magnitude displayed is 2.5.

Coastal Water Temperatures

Place Temperature

Stations

Nearby Weather Stations

Station Location Temp. Windchill Dew Point Humidity Wind Precip. Elev Updated Type
                   

Watches & Warnings

There are currently no watches in effect.